createdAt,value
2022-09-25T00:00:11.836Z,11
2022-09-25T00:03:11.981Z,11
2022-09-25T00:06:11.736Z,10.9
2022-09-25T00:09:14.764Z,10.9
2022-09-25T00:12:11.743Z,10.9
2022-09-25T00:15:11.684Z,10.8
2022-09-25T00:18:14.215Z,10.8
2022-09-25T00:21:11.904Z,10.8
2022-09-25T00:24:12.227Z,10.8
2022-09-25T00:27:11.698Z,10.8
2022-09-25T00:30:11.843Z,10.8
2022-09-25T00:33:11.678Z,10.8
2022-09-25T00:36:11.729Z,10.8
2022-09-25T00:39:11.898Z,10.9
2022-09-25T00:42:11.834Z,11
2022-09-25T00:45:12.043Z,11.1
2022-09-25T00:48:11.826Z,11.3
2022-09-25T00:51:11.760Z,11.5
2022-09-25T00:54:11.967Z,11.6
2022-09-25T00:57:11.906Z,11.8
2022-09-25T01:00:11.752Z,11.8
2022-09-25T01:03:12.056Z,11.9
2022-09-25T01:06:11.708Z,12
2022-09-25T01:09:11.795Z,12
2022-09-25T01:12:11.789Z,12
2022-09-25T01:15:11.901Z,12.1
2022-09-25T01:18:11.847Z,12.1
2022-09-25T01:21:11.747Z,12.2
2022-09-25T01:24:12.031Z,12.2
2022-09-25T01:27:12.518Z,12.2
2022-09-25T01:30:11.835Z,12.4
2022-09-25T01:33:11.748Z,12.2
2022-09-25T01:36:11.785Z,12.2
2022-09-25T01:39:11.805Z,12.2
2022-09-25T01:42:11.942Z,12.1
2022-09-25T01:45:11.790Z,12.1
2022-09-25T01:48:11.742Z,12.1
2022-09-25T01:51:11.859Z,12
2022-09-25T01:54:11.812Z,12
2022-09-25T01:57:11.689Z,11.9
2022-09-25T02:00:11.881Z,11.9
2022-09-25T02:03:12.011Z,11.8
2022-09-25T02:06:11.829Z,11.6
2022-09-25T02:09:11.772Z,11.5
2022-09-25T02:12:11.670Z,11.4
2022-09-25T02:15:11.801Z,11.3
2022-09-25T02:18:12.107Z,11.1
2022-09-25T02:21:11.724Z,11.1
2022-09-25T02:24:11.969Z,11
2022-09-25T02:27:11.659Z,11
2022-09-25T02:30:11.794Z,11
2022-09-25T02:33:11.685Z,11
2022-09-25T02:36:11.759Z,11
2022-09-25T02:39:11.706Z,11
2022-09-25T02:42:11.781Z,11
2022-09-25T02:45:11.758Z,11.1
2022-09-25T02:48:11.735Z,11.1
2022-09-25T02:51:11.667Z,11.1
2022-09-25T02:54:11.848Z,11.1
2022-09-25T02:57:15.481Z,11.1
2022-09-25T03:00:11.832Z,11.1
2022-09-25T03:03:11.938Z,11.3
2022-09-25T03:06:11.688Z,11.4
2022-09-25T03:09:11.680Z,11.5
2022-09-25T03:12:11.697Z,11.5
2022-09-25T03:15:11.709Z,11.6
2022-09-25T03:18:11.701Z,11.8
2022-09-25T03:21:11.762Z,11.8
2022-09-25T03:24:12.094Z,11.9
2022-09-25T03:27:11.756Z,12
2022-09-25T03:30:11.750Z,12
2022-09-25T03:33:11.709Z,12.1
2022-09-25T03:36:11.787Z,12.1
2022-09-25T03:39:11.723Z,12.2
2022-09-25T03:42:11.709Z,12.2
2022-09-25T03:45:11.744Z,12.2
2022-09-25T03:48:11.735Z,12.2
2022-09-25T03:51:11.738Z,12.4
2022-09-25T03:54:11.959Z,12.4
2022-09-25T03:57:11.682Z,12.4
2022-09-25T04:00:11.795Z,12.4
2022-09-25T04:03:11.721Z,12.4
2022-09-25T04:06:11.778Z,12.4
2022-09-25T04:09:11.721Z,12.4
2022-09-25T04:12:11.700Z,12.4
2022-09-25T04:15:11.679Z,12.5
2022-09-25T04:18:17.328Z,12.5
2022-09-25T04:21:11.698Z,12.5
2022-09-25T04:24:12.053Z,12.5
2022-09-25T04:27:11.712Z,12.5
2022-09-25T04:30:11.708Z,12.5
2022-09-25T04:33:11.739Z,12.5
2022-09-25T04:36:11.840Z,12.5
2022-09-25T04:39:11.694Z,12.5
2022-09-25T04:42:11.683Z,12.5
2022-09-25T04:45:11.750Z,12.5
2022-09-25T04:48:11.725Z,12.5
2022-09-25T04:51:11.710Z,12.6
2022-09-25T04:54:11.838Z,12.6
2022-09-25T04:57:11.697Z,12.6
2022-09-25T05:00:11.754Z,12.6
2022-09-25T05:03:12.772Z,12.6
2022-09-25T05:06:11.732Z,12.6
2022-09-25T05:09:11.734Z,12.6
2022-09-25T05:12:11.728Z,12.6
2022-09-25T05:15:11.735Z,12.6
2022-09-25T05:18:11.774Z,12.6
2022-09-25T05:21:11.712Z,12.8
2022-09-25T05:24:11.955Z,12.8
2022-09-25T05:27:11.719Z,12.8
2022-09-25T05:30:12.087Z,12.8
2022-09-25T05:33:11.909Z,12.8
2022-09-25T05:36:11.818Z,12.8
2022-09-25T05:39:17.916Z,12.9
2022-09-25T05:42:11.762Z,12.9
2022-09-25T05:45:18.772Z,12.9
2022-09-25T05:48:11.787Z,12.9
2022-09-25T05:51:11.807Z,12.9
2022-09-25T05:54:11.890Z,12.9
2022-09-25T05:57:11.731Z,13
2022-09-25T06:00:11.967Z,13
2022-09-25T06:03:12.339Z,13
2022-09-25T06:06:11.739Z,13.1
2022-09-25T06:09:11.758Z,13.1
2022-09-25T06:12:11.685Z,13.1
2022-09-25T06:15:11.734Z,13.1
2022-09-25T06:18:11.773Z,13.3
2022-09-25T06:21:11.744Z,13.4
2022-09-25T06:24:11.947Z,13.4
2022-09-25T06:27:11.717Z,13.5
2022-09-25T06:30:11.820Z,13.6
2022-09-25T06:33:11.814Z,13.8
2022-09-25T06:36:12.119Z,13.8
2022-09-25T06:39:11.791Z,13.9
2022-09-25T06:42:11.660Z,14
2022-09-25T06:45:11.747Z,14.1
2022-09-25T06:48:11.726Z,14.3
2022-09-25T06:51:11.790Z,14.3
2022-09-25T06:54:11.811Z,14.3
2022-09-25T06:57:11.691Z,14.3
2022-09-25T07:00:11.751Z,14.3
2022-09-25T07:03:12.389Z,14.4
2022-09-25T07:06:11.819Z,14.4
2022-09-25T07:09:11.874Z,14.4
2022-09-25T07:12:11.729Z,14.5
2022-09-25T07:15:11.756Z,14.5
2022-09-25T07:18:11.760Z,14.5
2022-09-25T07:21:11.755Z,14.6
2022-09-25T07:24:12.127Z,14.7
2022-09-25T07:27:11.730Z,14.7
2022-09-25T07:30:11.781Z,15
2022-09-25T07:33:11.699Z,15.1
2022-09-25T07:36:11.734Z,15.3
2022-09-25T07:39:14.854Z,15.4
2022-09-25T07:42:11.764Z,15.3
2022-09-25T07:45:11.698Z,15.3
2022-09-25T07:48:11.827Z,15.3
2022-09-25T07:51:11.706Z,15.3
2022-09-25T07:54:11.894Z,15.3
2022-09-25T07:57:11.696Z,15.4
2022-09-25T08:00:11.805Z,15.4
2022-09-25T08:03:12.367Z,15.4
2022-09-25T08:06:11.742Z,15.4
2022-09-25T08:09:17.588Z,15.4
2022-09-25T08:12:11.726Z,15.4
2022-09-25T08:15:11.778Z,15.4
2022-09-25T08:18:11.717Z,15.4
2022-09-25T08:21:11.774Z,15.4
2022-09-25T08:24:12.054Z,15.5
2022-09-25T08:27:11.716Z,15.4
2022-09-25T08:30:11.825Z,15.4
2022-09-25T08:33:18.056Z,15.6
2022-09-25T08:36:11.757Z,16
2022-09-25T08:39:11.784Z,16.5
2022-09-25T08:42:11.743Z,16.8
2022-09-25T08:45:33.794Z,17.1
2022-09-25T08:48:11.773Z,17.5
2022-09-25T08:51:11.748Z,17.5
2022-09-25T08:54:11.952Z,17.6
2022-09-25T08:57:11.814Z,18
2022-09-25T09:00:14.076Z,18.1
2022-09-25T09:03:11.824Z,18.3
2022-09-25T09:06:11.756Z,18.4
2022-09-25T09:09:11.789Z,18.3
2022-09-25T09:12:11.757Z,18.1
2022-09-25T09:15:11.767Z,18.1
2022-09-25T09:18:11.845Z,18.1
2022-09-25T09:21:11.789Z,18.1
2022-09-25T09:24:11.877Z,18.1
2022-09-25T09:27:11.745Z,18.4
2022-09-25T09:30:17.478Z,18.5
2022-09-25T09:33:11.783Z,18.4
2022-09-25T09:36:11.687Z,18.3
2022-09-25T09:39:11.740Z,18
2022-09-25T09:42:11.775Z,17.9
2022-09-25T09:45:11.706Z,17.8
2022-09-25T09:48:11.691Z,17.9
2022-09-25T09:51:11.729Z,17.9
2022-09-25T09:54:12.047Z,18.1
2022-09-25T09:57:11.702Z,18.1
2022-09-25T10:00:16.595Z,18.1
2022-09-25T10:03:12.734Z,18.3
2022-09-25T10:06:11.748Z,18
2022-09-25T10:09:11.777Z,18
2022-09-25T10:12:11.729Z,17.8
2022-09-25T10:15:11.799Z,17.8
2022-09-25T10:18:11.797Z,18.1
2022-09-25T10:21:11.750Z,18.3
2022-09-25T10:24:12.105Z,18
2022-09-25T10:27:11.893Z,17.8
2022-09-25T10:30:11.792Z,17.5
2022-09-25T10:33:11.724Z,17.2
2022-09-25T10:36:11.714Z,17.1
2022-09-25T10:39:55.856Z,17
2022-09-25T10:42:11.723Z,16.8
2022-09-25T10:45:11.853Z,16.5
2022-09-25T10:48:11.778Z,16.5
2022-09-25T10:51:11.783Z,16.9
2022-09-25T10:54:11.721Z,17.6
2022-09-25T10:57:11.851Z,18.3
2022-09-25T11:00:11.853Z,18.8
2022-09-25T11:03:19.698Z,19.1
2022-09-25T11:06:11.738Z,19.9
2022-09-25T11:09:12.034Z,20.1
2022-09-25T11:12:11.733Z,19.8
2022-09-25T11:15:11.798Z,19.6
2022-09-25T11:18:11.823Z,19.6
2022-09-25T11:21:11.763Z,19.3
2022-09-25T11:24:11.901Z,19
2022-09-25T11:27:11.764Z,18.8
2022-09-25T11:30:11.749Z,18.6
2022-09-25T11:33:11.714Z,18.6
2022-09-25T11:36:11.910Z,18.8
2022-09-25T11:39:11.903Z,18.9
2022-09-25T11:42:11.732Z,18.9
2022-09-25T11:45:11.765Z,18.6
2022-09-25T11:48:11.790Z,18.5
2022-09-25T11:51:11.730Z,18.8
2022-09-25T11:54:45.987Z,19.3
2022-09-25T11:57:11.752Z,19.5
2022-09-25T12:00:11.856Z,19.5
2022-09-25T12:03:11.757Z,19.4
2022-09-25T12:06:11.743Z,19.3
2022-09-25T12:09:11.786Z,19.5
2022-09-25T12:12:11.824Z,19.8
2022-09-25T12:15:11.761Z,19.6
2022-09-25T12:18:11.713Z,19.1
2022-09-25T12:21:11.724Z,19
2022-09-25T12:24:12.043Z,19
2022-09-25T12:27:11.761Z,19.1
2022-09-25T12:30:11.956Z,19
2022-09-25T12:33:11.753Z,18.5
2022-09-25T12:36:11.760Z,18.1
2022-09-25T12:39:11.680Z,18.3
2022-09-25T12:42:11.958Z,18.6
2022-09-25T12:45:11.744Z,19.1
2022-09-25T12:48:11.748Z,19.4
2022-09-25T12:51:16.815Z,19.8
2022-09-25T12:54:11.933Z,19.9
2022-09-25T12:57:11.674Z,20.1
2022-09-25T13:00:11.824Z,20.5
2022-09-25T13:03:11.703Z,20.5
2022-09-25T13:06:11.708Z,20.1
2022-09-25T13:09:11.817Z,20.4
2022-09-25T13:12:11.757Z,21.2
2022-09-25T13:15:11.693Z,21.8
2022-09-25T13:18:11.749Z,22
2022-09-25T13:21:11.731Z,22.4
2022-09-25T13:24:12.026Z,22.8
2022-09-25T13:27:11.716Z,22.8
2022-09-25T13:30:11.896Z,22.6
2022-09-25T13:33:11.737Z,22.5
2022-09-25T13:36:12.040Z,22.8
2022-09-25T13:39:11.787Z,22.8
2022-09-25T13:42:11.723Z,23
2022-09-25T13:45:11.717Z,23.5
2022-09-25T13:48:18.757Z,23.7
2022-09-25T13:51:11.777Z,24.4
2022-09-25T13:54:11.696Z,26.5
2022-09-25T13:57:11.738Z,27.6
2022-09-25T14:00:11.786Z,27.5
2022-09-25T14:03:11.772Z,28.1
2022-09-25T14:06:11.772Z,27.6
2022-09-25T14:09:12.035Z,26.6
2022-09-25T14:12:11.713Z,25.3
2022-09-25T14:15:11.766Z,24.9
2022-09-25T14:18:11.951Z,26.4
2022-09-25T14:21:11.756Z,25.6
2022-09-25T14:24:11.768Z,25.1
2022-09-25T14:27:11.751Z,23.7
2022-09-25T14:30:11.948Z,22.9
2022-09-25T14:33:11.691Z,22.2
2022-09-25T14:36:11.819Z,21.8
2022-09-25T14:39:12.013Z,21.9
2022-09-25T14:42:11.742Z,21.9
2022-09-25T14:45:11.777Z,21.5
2022-09-25T14:48:11.790Z,20.9
2022-09-25T14:51:12.610Z,21
2022-09-25T14:54:12.062Z,20.1
2022-09-25T14:57:11.741Z,21
2022-09-25T15:00:11.987Z,22.5
2022-09-25T15:03:11.834Z,24.4
2022-09-25T15:06:18.526Z,23.3
2022-09-25T15:09:11.737Z,22.4
2022-09-25T15:12:11.723Z,21.9
2022-09-25T15:15:14.421Z,22.4
2022-09-25T15:18:11.709Z,22.8
2022-09-25T15:21:11.718Z,25.8
2022-09-25T15:24:11.934Z,27.8
2022-09-25T15:27:11.788Z,25.1
2022-09-25T15:30:11.897Z,27.6
2022-09-25T15:33:12.398Z,29
2022-09-25T15:36:11.763Z,30
2022-09-25T15:39:11.857Z,29.5
2022-09-25T15:42:11.734Z,28
2022-09-25T15:45:11.780Z,26.1
2022-09-25T15:48:11.700Z,25.4
2022-09-25T15:51:11.721Z,23.5
2022-09-25T15:54:12.021Z,23.7
2022-09-25T15:57:11.825Z,23
2022-09-25T16:00:11.972Z,23.1
2022-09-25T16:03:11.976Z,22.5
2022-09-25T16:06:11.826Z,21
2022-09-25T16:09:12.059Z,19.9
2022-09-25T16:12:11.752Z,18.9
2022-09-25T16:15:11.816Z,18.3
2022-09-25T16:18:17.094Z,17.6
2022-09-25T16:21:11.735Z,17
2022-09-25T16:24:11.776Z,16.6
2022-09-25T16:27:11.718Z,16.4
2022-09-25T16:30:15.906Z,16.1
2022-09-25T16:33:11.737Z,16.1
2022-09-25T16:36:28.321Z,15.9
2022-09-25T16:39:12.986Z,15.8
2022-09-25T16:42:11.771Z,15.6
2022-09-25T16:45:11.660Z,15.5
2022-09-25T16:48:11.780Z,15.5
2022-09-25T16:51:11.671Z,15.4
2022-09-25T16:54:11.767Z,15.3
2022-09-25T16:57:11.712Z,15.3
2022-09-25T17:00:11.769Z,15.1
2022-09-25T17:03:12.373Z,15.1
2022-09-25T17:06:11.770Z,15
2022-09-25T17:09:11.968Z,15
2022-09-25T17:12:11.880Z,14.9
2022-09-25T17:15:11.696Z,14.9
2022-09-25T17:18:11.672Z,14.7
2022-09-25T17:21:11.642Z,14.7
2022-09-25T17:24:11.742Z,14.6
2022-09-25T17:27:11.696Z,14.5
2022-09-25T17:30:11.829Z,14.5
2022-09-25T17:33:11.708Z,14.4
2022-09-25T17:36:11.714Z,14.3
2022-09-25T17:39:12.214Z,14.3
2022-09-25T17:42:11.740Z,14.1
2022-09-25T17:45:11.708Z,13.9
2022-09-25T17:48:11.705Z,13.9
2022-09-25T17:51:11.679Z,13.6
2022-09-25T17:54:11.764Z,13.4
2022-09-25T17:57:11.674Z,13.1
2022-09-25T18:00:11.786Z,13
2022-09-25T18:03:12.329Z,12.9
2022-09-25T18:06:11.706Z,12.8
2022-09-25T18:09:12.146Z,12.6
2022-09-25T18:12:11.786Z,12.5
2022-09-25T18:15:11.738Z,12.4
2022-09-25T18:18:11.936Z,12.2
2022-09-25T18:21:18.586Z,12.1
2022-09-25T18:24:11.710Z,12
2022-09-25T18:27:11.710Z,12
2022-09-25T18:30:11.684Z,11.8
2022-09-25T18:33:11.738Z,11.6
2022-09-25T18:36:11.691Z,11.5
2022-09-25T18:39:14.890Z,11.4
2022-09-25T18:42:11.700Z,11.1
2022-09-25T18:45:11.684Z,11
2022-09-25T18:48:11.696Z,10.9
2022-09-25T18:51:11.643Z,10.8
2022-09-25T18:54:11.721Z,10.8
2022-09-25T18:57:11.719Z,10.6
2022-09-25T19:00:11.731Z,10.5
2022-09-25T19:03:12.580Z,10.5
2022-09-25T19:06:11.737Z,10.5
2022-09-25T19:09:19.461Z,10.5
2022-09-25T19:12:11.715Z,10.6
2022-09-25T19:15:11.691Z,10.8
2022-09-25T19:18:11.685Z,10.9
2022-09-25T19:21:11.707Z,11
2022-09-25T19:24:11.668Z,11.1
2022-09-25T19:27:11.691Z,11.1
2022-09-25T19:30:11.729Z,11.1
2022-09-25T19:33:11.716Z,11.1
2022-09-25T19:36:11.769Z,11.1
2022-09-25T19:39:11.937Z,11.1
2022-09-25T19:42:11.712Z,11
2022-09-25T19:45:11.754Z,10.9
2022-09-25T19:48:11.686Z,10.8
2022-09-25T19:51:11.765Z,10.6
2022-09-25T19:54:11.686Z,10.5
2022-09-25T19:57:11.722Z,10.4
2022-09-25T20:00:11.907Z,10.3
2022-09-25T20:03:12.299Z,10.1
2022-09-25T20:06:11.703Z,10
2022-09-25T20:09:11.667Z,9.9
2022-09-25T20:12:11.696Z,9.9
2022-09-25T20:15:11.685Z,9.8
2022-09-25T20:18:11.772Z,9.6
2022-09-25T20:21:11.708Z,9.6
2022-09-25T20:24:11.666Z,9.5
2022-09-25T20:27:11.722Z,9.5
2022-09-25T20:30:11.670Z,9.5
2022-09-25T20:33:11.753Z,9.5
2022-09-25T20:36:11.729Z,9.4
2022-09-25T20:39:13.605Z,9.4
2022-09-25T20:42:11.695Z,9.4
2022-09-25T20:45:11.967Z,9.4
2022-09-25T20:48:11.688Z,9.4
2022-09-25T20:51:11.643Z,9.3
2022-09-25T20:54:12.146Z,9.3
2022-09-25T20:57:11.708Z,9.3
2022-09-25T21:00:13.356Z,9.1
2022-09-25T21:03:12.373Z,9.1
2022-09-25T21:06:11.702Z,9.1
2022-09-25T21:09:11.722Z,9
2022-09-25T21:12:11.651Z,9
2022-09-25T21:15:11.729Z,9
2022-09-25T21:18:11.726Z,8.9
2022-09-25T21:21:11.658Z,8.9
2022-09-25T21:24:11.846Z,8.8
2022-09-25T21:27:11.672Z,8.8
2022-09-25T21:30:11.658Z,8.6
2022-09-25T21:33:11.655Z,8.5
2022-09-25T21:36:11.695Z,8.3
2022-09-25T21:39:11.918Z,8.1
2022-09-25T21:42:11.751Z,8
2022-09-25T21:45:11.728Z,7.9
2022-09-25T21:48:11.691Z,7.7
2022-09-25T21:51:11.675Z,7.7
2022-09-25T21:54:11.708Z,7.6
2022-09-25T21:57:11.665Z,7.5
2022-09-25T22:00:11.918Z,7.4
2022-09-25T22:03:12.312Z,7.4
2022-09-25T22:06:11.610Z,7.2
2022-09-25T22:09:11.789Z,7.2
2022-09-25T22:12:11.677Z,7.2
2022-09-25T22:15:11.710Z,7.1
2022-09-25T22:18:11.709Z,7.1
2022-09-25T22:21:11.672Z,7.1
2022-09-25T22:24:11.670Z,7.1
2022-09-25T22:27:11.743Z,7.1
2022-09-25T22:30:11.709Z,7.1
2022-09-25T22:33:11.688Z,7
2022-09-25T22:36:11.713Z,6.9
2022-09-25T22:39:11.922Z,6.7
2022-09-25T22:42:11.696Z,6.6
2022-09-25T22:45:11.701Z,6.5
2022-09-25T22:48:11.791Z,6.5
2022-09-25T22:51:11.667Z,6.4
2022-09-25T22:54:11.673Z,6.2
2022-09-25T22:57:11.725Z,6.1
2022-09-25T23:00:11.755Z,6.1
2022-09-25T23:03:11.661Z,6
2022-09-25T23:06:11.687Z,5.9
2022-09-25T23:09:11.935Z,5.9
2022-09-25T23:12:11.696Z,5.9
2022-09-25T23:15:11.658Z,5.7
2022-09-25T23:18:11.718Z,5.7
2022-09-25T23:21:11.720Z,5.6
2022-09-25T23:24:11.701Z,5.6
2022-09-25T23:27:11.753Z,5.5
2022-09-25T23:30:11.659Z,5.5
2022-09-25T23:33:11.719Z,5.5
2022-09-25T23:36:11.649Z,5.5
2022-09-25T23:39:11.961Z,5.5
2022-09-25T23:42:11.647Z,5.4
2022-09-25T23:45:11.713Z,5.4
2022-09-25T23:48:11.694Z,5.4
2022-09-25T23:51:11.700Z,5.2
2022-09-25T23:54:11.726Z,5.2
2022-09-25T23:57:11.673Z,5.2
